createdAt,value
2018-08-31T13:22:39.066Z,40.26
2018-08-31T13:23:38.989Z,39.97
2018-08-31T13:24:38.985Z,40.06
2018-08-31T13:25:38.959Z,39.57
2018-08-31T13:26:38.937Z,40.76
2018-08-31T13:27:38.922Z,41.85
2018-08-31T13:28:38.912Z,40.86
2018-08-31T13:32:45.570Z,31.09
2018-08-31T13:33:45.588Z,30.76
2018-08-31T13:34:45.547Z,33.33
2018-08-31T13:35:45.537Z,33.88
2018-08-31T13:36:45.527Z,35.10
2018-08-31T13:37:45.521Z,35.41
2018-08-31T13:38:45.509Z,35.53
2018-08-31T13:39:45.533Z,35.88
2018-08-31T13:40:45.488Z,34.48
2018-08-31T13:41:45.629Z,35.43
2018-08-31T13:42:45.463Z,35.03
2018-08-31T13:43:45.460Z,35.43
2018-08-31T13:44:45.450Z,34.44
2018-08-31T13:45:45.481Z,35.46
2018-08-31T13:46:45.432Z,35.06
2018-08-31T13:47:45.471Z,35.56
2018-08-31T13:48:45.400Z,35.26
2018-08-31T13:49:45.392Z,34.26
2018-08-31T13:50:45.378Z,30.29
2018-08-31T13:51:45.414Z,28.85
2018-08-31T13:52:45.463Z,29.52
2018-08-31T13:53:45.356Z,29.41
2018-08-31T13:54:45.351Z,29.77
2018-08-31T13:55:45.332Z,28.73
2018-08-31T13:56:45.326Z,26.44
2018-08-31T13:57:45.401Z,27.32
2018-08-31T13:58:45.329Z,27.23
2018-08-31T13:59:45.335Z,27.42
2018-08-31T14:00:45.282Z,26.54
2018-08-31T14:01:45.647Z,27.16
2018-08-31T14:02:45.255Z,28.88
2018-08-31T14:03:45.455Z,28.69
2018-08-31T14:04:45.318Z,28.59
2018-08-31T14:05:45.275Z,28.19
2018-08-31T14:06:45.229Z,28.99
2018-08-31T14:07:45.246Z,28.85
2018-08-31T14:08:45.188Z,29.65
2018-08-31T14:09:45.212Z,30.24
2018-08-31T14:10:45.194Z,29.50
2018-08-31T14:11:45.159Z,27.28
2018-08-31T14:12:45.256Z,27.04
2018-08-31T14:13:45.200Z,25.74
2018-08-31T14:14:45.128Z,28.39
2018-08-31T14:15:45.176Z,25.65
2018-08-31T14:16:45.108Z,26.54
2018-08-31T14:17:45.104Z,26.33
2018-08-31T14:18:45.086Z,29.03
2018-08-31T14:19:45.083Z,27.72
2018-08-31T14:20:45.070Z,27.72
2018-08-31T14:21:45.130Z,27.31
2018-08-31T14:22:45.051Z,28.93
2018-08-31T14:23:45.033Z,28.39
2018-08-31T14:24:45.024Z,28.12
2018-08-31T14:25:45.041Z,30.38
2018-08-31T14:26:45.032Z,32.02
2018-08-31T14:27:45.053Z,33.88
2018-08-31T14:28:44.990Z,34.31
2018-08-31T14:29:44.996Z,34.83
2018-08-31T14:30:44.962Z,35.26
2018-08-31T14:31:44.988Z,35.16
2018-08-31T14:32:44.940Z,36.38
2018-08-31T14:33:44.987Z,36.68
2018-08-31T14:34:44.925Z,37.79
2018-08-31T14:35:44.932Z,36.58
2018-08-31T14:36:44.905Z,36.50
2018-08-31T14:37:44.891Z,36.60
2018-08-31T14:38:44.890Z,36.28
2018-08-31T14:39:44.919Z,35.36
2018-08-31T14:40:44.865Z,34.12
2018-08-31T14:41:44.889Z,34.59
2018-08-31T14:42:44.843Z,33.35
2018-08-31T14:43:44.825Z,32.52
2018-08-31T14:44:44.821Z,31.81
2018-08-31T14:45:44.838Z,31.36
2018-08-31T14:46:44.805Z,30.42
2018-08-31T14:47:44.827Z,30.19
2018-08-31T14:48:44.773Z,29.37
2018-08-31T14:49:44.792Z,28.86
2018-08-31T14:50:44.761Z,27.56
2018-08-31T14:51:44.783Z,27.68
2018-08-31T14:52:44.732Z,28.19
2018-08-31T14:53:44.739Z,32.20
2018-08-31T14:54:44.749Z,27.80
2018-08-31T14:55:44.718Z,29.06
2018-08-31T14:56:44.699Z,27.17
2018-08-31T14:57:44.727Z,26.96
2018-08-31T14:58:44.784Z,26.56
2018-08-31T14:59:44.664Z,26.86
2018-08-31T15:00:44.659Z,27.06
2018-08-31T15:01:44.643Z,29.95
2018-08-31T15:02:44.629Z,28.96
2018-08-31T15:03:44.689Z,28.06
2018-08-31T15:04:44.631Z,28.18
2018-08-31T15:05:44.650Z,29.48
2018-08-31T15:06:44.591Z,29.99
2018-08-31T15:07:44.602Z,28.80
2018-08-31T15:08:44.571Z,29.50
2018-08-31T15:09:44.605Z,30.82
2018-08-31T15:10:44.562Z,31.84
2018-08-31T15:11:44.538Z,31.74
2018-08-31T15:12:44.559Z,32.57
2018-08-31T15:13:44.523Z,32.18
2018-08-31T15:14:44.514Z,33.20
2018-08-31T15:15:44.530Z,33.80
2018-08-31T15:16:44.487Z,33.40
2018-08-31T15:17:44.479Z,33.30
2018-08-31T15:18:44.482Z,33.51
2018-08-31T15:19:44.461Z,33.63
2018-08-31T15:20:44.444Z,33.43
2018-08-31T15:21:44.468Z,33.75
2018-08-31T15:22:44.426Z,34.53
2018-08-31T15:23:44.416Z,34.63
2018-08-31T15:24:44.424Z,34.25
2018-08-31T15:25:44.435Z,34.25
2018-08-31T15:26:44.383Z,34.84
2018-08-31T15:27:44.409Z,35.16
2018-08-31T15:28:44.363Z,35.26
2018-08-31T15:29:44.352Z,36.16
2018-08-31T15:30:44.358Z,35.66
2018-08-31T15:31:44.338Z,35.88
2018-08-31T15:32:44.321Z,35.80
2018-08-31T15:33:44.343Z,37.10
2018-08-31T15:34:44.305Z,37.19
2018-08-31T15:35:44.291Z,37.49
2018-08-31T15:36:44.311Z,37.59
2018-08-31T15:37:44.272Z,37.49
2018-08-31T15:38:44.268Z,37.01
2018-08-31T15:39:44.280Z,37.41
2018-08-31T15:40:44.248Z,36.93
2018-08-31T15:41:44.232Z,37.25
2018-08-31T15:42:44.242Z,38.45
2018-08-31T15:43:44.208Z,38.87
2018-08-31T15:44:44.197Z,39.69
2018-08-31T15:45:44.223Z,39.39
2018-08-31T15:46:44.175Z,39.49
2018-08-31T15:47:44.169Z,39.37
2018-08-31T15:48:44.167Z,40.19
2018-08-31T15:49:44.178Z,39.59
2018-08-31T15:50:44.134Z,39.59
2018-08-31T15:51:44.152Z,38.89
2018-08-31T15:52:44.112Z,39.79
2018-08-31T15:53:44.106Z,40.49
2018-08-31T15:54:44.102Z,40.29
2018-08-31T15:55:44.080Z,39.51
2018-08-31T15:56:44.068Z,40.33
2018-08-31T15:57:44.094Z,40.33
2018-08-31T15:58:44.049Z,40.93
2018-08-31T15:59:44.042Z,39.95
2018-08-31T16:00:44.029Z,40.35
2018-08-31T16:01:44.028Z,40.55
2018-08-31T16:02:44.006Z,40.75
2018-08-31T16:03:44.032Z,41.15
2018-08-31T16:04:43.985Z,42.05
2018-08-31T16:05:43.972Z,41.65
2018-08-31T16:06:43.961Z,40.87
2018-08-31T16:07:43.991Z,41.67
2018-08-31T16:08:43.943Z,41.27
2018-08-31T16:09:43.976Z,41.57
2018-08-31T16:10:43.919Z,41.25
2018-08-31T16:11:43.908Z,41.37
2018-08-31T16:12:43.898Z,41.07
2018-08-31T16:13:43.894Z,42.10
2018-08-31T16:14:43.881Z,41.67
2018-08-31T16:15:43.902Z,41.99
2018-08-31T16:16:43.906Z,42.69
2018-08-31T16:17:43.862Z,42.60
2018-08-31T16:18:43.876Z,42.52
2018-08-31T16:19:43.861Z,42.52
2018-08-31T16:20:43.877Z,42.41
2018-08-31T16:21:43.846Z,42.61
2018-08-31T16:22:43.821Z,42.61
2018-08-31T16:23:43.821Z,42.52
2018-08-31T16:24:43.812Z,42.84
2018-08-31T16:25:43.765Z,42.72
2018-08-31T16:26:43.785Z,43.02
2018-08-31T16:27:43.794Z,43.12
2018-08-31T16:28:43.751Z,42.54
2018-08-31T16:29:43.743Z,42.84
2018-08-31T16:30:43.722Z,42.11
2018-08-31T16:31:43.708Z,42.92
2018-08-31T16:32:43.688Z,43.34
2018-08-31T16:33:43.725Z,42.76
2018-08-31T16:34:43.670Z,43.36
2018-08-31T16:35:43.678Z,43.26
2018-08-31T16:36:43.681Z,44.49
2018-08-31T16:37:43.632Z,44.39
2018-08-31T16:38:43.678Z,43.68
2018-08-31T16:39:43.680Z,43.16
2018-08-31T16:40:43.600Z,43.36
2018-08-31T16:41:43.584Z,42.96
2018-08-31T16:42:43.598Z,43.08
2018-08-31T16:43:43.595Z,43.28
2018-08-31T16:44:43.596Z,43.38
2018-08-31T16:45:43.587Z,43.08
2018-08-31T16:46:43.537Z,44.39
2018-08-31T16:47:43.521Z,44.29
2018-08-31T16:48:43.512Z,43.79
2018-08-31T16:49:43.499Z,44.29
2018-08-31T16:50:43.497Z,44.29
2018-08-31T16:51:43.522Z,44.09
2018-08-31T16:52:43.466Z,44.79
2018-08-31T16:53:43.457Z,44.61
2018-08-31T16:54:43.457Z,44.92
2018-08-31T16:55:43.442Z,44.01
2018-08-31T16:56:43.428Z,44.41
2018-08-31T16:57:43.479Z,45.32
2018-08-31T16:58:43.428Z,44.43
2018-08-31T16:59:43.393Z,45.12
2018-08-31T17:00:43.377Z,44.61
2018-08-31T17:01:43.379Z,44.11
2018-08-31T17:02:43.406Z,44.31
2018-08-31T17:03:43.421Z,44.31
2018-08-31T17:04:43.340Z,44.83
2018-08-31T17:05:43.325Z,44.11
2018-08-31T17:06:43.330Z,45.03
2018-08-31T17:07:43.363Z,44.63
2018-08-31T17:08:43.380Z,45.14
2018-08-31T17:09:43.321Z,45.14
2018-08-31T17:10:43.282Z,45.03
2018-08-31T17:11:43.274Z,45.03
2018-08-31T17:12:43.254Z,45.44
2018-08-31T17:13:43.238Z,45.74
2018-08-31T17:14:43.237Z,45.03
2018-08-31T17:15:43.256Z,45.74
2018-08-31T17:16:43.277Z,46.04
2018-08-31T17:17:43.203Z,45.84
2018-08-31T17:18:43.195Z,46.57
2018-08-31T17:19:43.180Z,46.67
2018-08-31T17:20:43.179Z,45.94
2018-08-31T17:21:43.181Z,46.47
2018-08-31T17:22:43.145Z,46.77
2018-08-31T17:23:43.130Z,46.77
2018-08-31T17:24:43.138Z,46.59
2018-08-31T17:25:43.124Z,46.47
2018-08-31T17:26:43.106Z,46.89
2018-08-31T17:27:43.131Z,46.69
2018-08-31T17:28:43.088Z,47.30
2018-08-31T17:29:43.070Z,47.40
2018-08-31T17:30:43.104Z,47.09
2018-08-31T17:31:43.113Z,47.80
2018-08-31T17:32:43.031Z,47.80
2018-08-31T17:33:43.065Z,47.62
2018-08-31T17:34:43.014Z,49.41
2018-08-31T17:35:43.006Z,50.12
2018-08-31T17:36:42.992Z,47.90
2018-08-31T17:37:42.980Z,48.00
2018-08-31T18:21:04.540Z,50.84
2018-08-31T18:22:04.481Z,51.17
2018-08-31T18:23:04.470Z,51.37
2018-08-31T18:24:04.460Z,51.37
2018-08-31T18:25:04.459Z,51.57
2018-08-31T18:26:04.439Z,51.78
2018-08-31T18:27:04.474Z,52.28
2018-08-31T18:28:04.424Z,52.01
2018-08-31T18:29:04.414Z,52.72
2018-08-31T18:30:04.393Z,52.51
2018-08-31T18:31:04.388Z,52.21
2018-08-31T18:32:04.381Z,52.81
2018-08-31T18:33:04.444Z,53.34
2018-08-31T18:34:04.372Z,53.83
2018-08-31T18:35:04.345Z,53.45
2018-08-31T18:36:04.343Z,53.55
2018-08-31T18:37:04.331Z,53.96
2018-08-31T18:38:04.317Z,53.96
2018-08-31T18:39:04.802Z,53.34
2018-08-31T18:40:04.464Z,54.05
2018-08-31T18:41:04.299Z,53.14
2018-08-31T18:42:04.264Z,53.47
2018-08-31T18:43:04.272Z,53.88
2018-08-31T18:44:04.264Z,53.67
2018-08-31T18:45:04.279Z,54.41
2018-08-31T18:46:04.282Z,53.98
2018-08-31T18:47:04.231Z,54.21
2018-08-31T18:48:04.202Z,54.51
2018-08-31T18:49:04.218Z,54.82
2018-08-31T18:50:04.179Z,54.51
2018-08-31T18:51:04.793Z,54.71
2018-08-31T18:52:04.157Z,55.02
2018-08-31T18:53:04.145Z,55.02
2018-08-31T18:54:04.150Z,54.31
2018-08-31T18:55:04.122Z,55.02
2018-08-31T18:56:04.112Z,55.52
2018-08-31T18:57:04.140Z,55.73
2018-08-31T18:58:04.171Z,55.43
2018-08-31T18:59:04.080Z,56.26
2018-08-31T19:00:04.089Z,56.46
2018-08-31T19:01:04.059Z,55.76
2018-08-31T19:02:04.047Z,55.96
2018-08-31T19:03:04.070Z,56.36
2018-08-31T19:04:04.026Z,56.97
2018-08-31T19:05:04.020Z,56.99
2018-08-31T19:06:04.008Z,56.77
2018-08-31T19:07:04.102Z,56.70
2018-08-31T19:08:03.986Z,57.71
2018-08-31T19:09:04.003Z,58.22
2018-08-31T19:10:03.959Z,56.90
2018-08-31T19:11:04.022Z,57.20
2018-08-31T19:12:03.947Z,57.64
2018-08-31T19:13:03.940Z,57.33
2018-08-31T19:14:03.926Z,58.65
2018-08-31T19:15:03.936Z,58.45
2018-08-31T19:16:03.892Z,57.46
2018-08-31T19:17:03.885Z,58.45
2018-08-31T19:18:03.870Z,59.18
2018-08-31T19:19:03.865Z,58.88
2018-08-31T19:20:03.863Z,59.18
2018-08-31T19:21:03.870Z,58.88
2018-08-31T19:22:03.857Z,59.18
2018-08-31T19:23:03.826Z,59.41
2018-08-31T19:24:03.832Z,59.28
2018-08-31T19:25:03.872Z,60.83
2018-08-31T19:26:03.833Z,60.13
2018-08-31T19:27:03.839Z,60.83
2018-08-31T19:28:03.852Z,60.66
2018-08-31T19:29:03.754Z,59.54
2018-08-31T19:30:03.748Z,59.34
2018-08-31T19:31:03.775Z,59.24
2018-08-31T19:32:03.723Z,59.64
2018-08-31T19:33:03.749Z,59.37
2018-08-31T19:34:03.714Z,60.79
2018-08-31T19:35:03.711Z,59.27
2018-08-31T19:36:03.696Z,59.67
2018-08-31T19:37:03.670Z,60.89
2018-08-31T19:38:03.678Z,59.37
2018-08-31T19:39:03.713Z,59.98
2018-08-31T19:40:03.634Z,60.38
2018-08-31T19:41:03.684Z,59.80
2018-08-31T19:42:03.617Z,61.51
2018-08-31T19:43:03.596Z,61.63
2018-08-31T19:44:03.593Z,60.18
2018-08-31T19:45:03.628Z,60.72
2018-08-31T19:46:03.601Z,60.08
2018-08-31T19:47:03.581Z,60.21
2018-08-31T19:48:03.575Z,59.80
2018-08-31T19:49:03.547Z,60.82
2018-08-31T19:50:03.563Z,60.61
2018-08-31T19:51:03.555Z,60.92
2018-08-31T19:52:03.502Z,60.52
2018-08-31T19:53:03.489Z,60.03
2018-08-31T19:54:03.586Z,61.15
2018-08-31T19:55:03.484Z,60.34
2018-08-31T19:56:03.478Z,62.07
2018-08-31T19:57:03.478Z,61.15
2018-08-31T19:58:03.438Z,61.15
2018-08-31T19:59:03.461Z,60.95
2018-08-31T20:00:03.410Z,61.56
2018-08-31T20:01:03.416Z,61.56
2018-08-31T20:02:03.399Z,61.08
2018-08-31T20:03:03.473Z,61.46
2018-08-31T20:04:03.410Z,60.88
2018-08-31T20:05:03.371Z,61.29
2018-08-31T20:06:03.365Z,61.59
2018-08-31T20:07:03.424Z,62.94
2018-08-31T20:08:03.355Z,62.71
2018-08-31T20:09:03.345Z,62.23
2018-08-31T20:10:03.310Z,62.74
2018-08-31T20:11:03.291Z,62.97
2018-08-31T20:12:03.281Z,63.18
2018-08-31T20:13:03.281Z,62.77
2018-08-31T20:14:03.270Z,62.77
2018-08-31T20:15:03.442Z,63.28
2018-08-31T20:16:03.262Z,63.38
2018-08-31T20:17:03.275Z,62.56
2018-08-31T20:18:03.222Z,63.68
2018-08-31T20:19:03.217Z,63.71
2018-08-31T20:20:03.206Z,63.82
2018-08-31T20:21:03.240Z,63.48
2018-08-31T20:22:03.172Z,64.02
2018-08-31T20:23:03.200Z,63.99
2018-08-31T20:24:03.205Z,64.22
2018-08-31T20:25:03.150Z,64.02
2018-08-31T20:26:03.166Z,64.63
2018-08-31T20:27:03.152Z,64.53
2018-08-31T20:28:03.120Z,65.34
2018-08-31T20:29:03.092Z,64.53
2018-08-31T20:30:03.100Z,65.28
2018-08-31T20:31:03.201Z,65.07
2018-08-31T20:32:03.082Z,64.87
2018-08-31T20:33:03.116Z,65.48
2018-08-31T20:34:03.056Z,65.48
2018-08-31T20:35:03.028Z,65.48
2018-08-31T20:36:03.021Z,65.37
2018-08-31T20:37:02.998Z,65.28
2018-08-31T20:38:02.996Z,65.07
2018-08-31T20:39:03.021Z,65.51
2018-08-31T20:40:02.986Z,65.51
2018-08-31T20:41:02.966Z,65.61
2018-08-31T20:42:02.950Z,66.02
2018-08-31T20:43:02.996Z,66.53
2018-08-31T20:44:02.925Z,65.71
2018-08-31T20:45:02.945Z,65.71
2018-08-31T20:46:02.935Z,65.81
2018-08-31T20:47:02.894Z,65.71
2018-08-31T20:48:02.883Z,65.92
2018-08-31T20:49:02.874Z,66.42
2018-08-31T20:50:02.863Z,66.56
2018-08-31T20:51:02.876Z,66.25
2018-08-31T20:52:02.850Z,66.63
2018-08-31T20:53:02.824Z,67.07
2018-08-31T20:54:02.838Z,66.77
2018-08-31T20:55:02.812Z,67.68
2018-08-31T20:56:02.804Z,67.18
2018-08-31T20:57:02.831Z,67.07
2018-08-31T20:58:02.779Z,67.07
2018-08-31T20:59:02.774Z,67.41
2018-08-31T21:00:02.751Z,67.58
2018-08-31T21:01:02.754Z,67.92
2018-08-31T21:02:02.734Z,67.27
2018-08-31T21:03:02.758Z,67.92
2018-08-31T21:04:02.705Z,67.61
2018-08-31T21:05:02.706Z,68.23
2018-08-31T21:06:02.692Z,68.23
2018-08-31T21:07:02.672Z,68.23
2018-08-31T21:08:02.675Z,68.53
2018-08-31T21:09:02.686Z,67.92
2018-08-31T21:10:02.637Z,68.12
2018-08-31T21:11:02.628Z,68.12
2018-08-31T21:12:02.622Z,68.57
2018-08-31T21:13:02.619Z,68.57
2018-08-31T21:14:02.598Z,68.66
2018-08-31T21:15:02.627Z,69.01
2018-08-31T21:16:02.583Z,69.52
2018-08-31T21:17:02.597Z,70.23
2018-08-31T21:18:02.549Z,70.16
2018-08-31T21:19:02.539Z,70.88
2018-08-31T21:20:02.531Z,70.88
2018-08-31T21:21:02.567Z,71.29
2018-08-31T21:22:02.506Z,70.67
2018-08-31T21:23:02.494Z,71.49
2018-08-31T21:24:02.489Z,71.19
2018-08-31T21:25:02.474Z,71.39
2018-08-31T21:26:02.464Z,71.39
2018-08-31T21:27:02.493Z,71.87
2018-08-31T21:28:02.440Z,71.36
2018-08-31T21:29:02.428Z,71.56
2018-08-31T21:30:02.422Z,70.84
2018-08-31T21:31:02.415Z,70.54
2018-08-31T21:32:02.454Z,70.34
2018-08-31T21:33:02.437Z,70.92
2018-08-31T21:34:02.374Z,70.03
2018-08-31T21:35:02.364Z,70.23
2018-08-31T21:36:02.357Z,70.03
2018-08-31T21:37:02.341Z,70.43
2018-08-31T21:38:02.331Z,70.95
2018-08-31T21:39:02.387Z,71.08
2018-08-31T21:40:02.319Z,70.67
2018-08-31T21:41:02.305Z,70.64
2018-08-31T21:42:02.354Z,70.84
2018-08-31T21:43:02.302Z,70.34
2018-08-31T21:44:02.793Z,70.43
2018-08-31T21:45:02.290Z,70.95
2018-08-31T21:46:02.253Z,70.64
2018-08-31T21:47:02.244Z,70.43
2018-08-31T21:48:02.291Z,70.43
2018-08-31T21:49:02.240Z,70.64
2018-08-31T21:50:02.238Z,70.43
2018-08-31T21:51:02.244Z,69.01
2018-08-31T21:52:02.192Z,70.03
2018-08-31T21:53:02.186Z,70.43
2018-08-31T21:54:02.191Z,70.34
2018-08-31T21:55:02.191Z,70.75
2018-08-31T21:56:02.145Z,70.54
2018-08-31T21:57:02.199Z,69.93
2018-08-31T21:58:02.126Z,70.54
2018-08-31T21:59:02.119Z,70.43
2018-08-31T22:00:02.092Z,70.57
2018-08-31T22:01:02.092Z,70.26
2018-08-31T22:02:02.079Z,70.57
2018-08-31T22:03:02.093Z,69.96
2018-08-31T22:04:02.050Z,70.26
2018-08-31T22:05:02.049Z,70.37
2018-08-31T22:06:02.026Z,70.98
2018-08-31T22:07:02.019Z,71.12
2018-08-31T22:08:02.003Z,70.88
2018-08-31T22:09:02.031Z,71.12
2018-08-31T22:10:01.994Z,71.01
2018-08-31T22:11:01.971Z,71.62
2018-08-31T22:12:01.961Z,71.15
2018-08-31T22:13:01.949Z,72.28
2018-08-31T22:14:01.939Z,72.38
2018-08-31T22:15:01.961Z,72.89
2018-08-31T22:16:01.924Z,72.38
2018-08-31T22:17:01.915Z,72.24
2018-08-31T22:18:01.898Z,72.28
2018-08-31T22:19:01.890Z,73.10
2018-08-31T22:20:01.877Z,72.69
2018-08-31T22:21:01.892Z,72.58
2018-08-31T22:22:01.858Z,72.78
2018-08-31T22:23:01.855Z,72.07
2018-08-31T22:24:01.833Z,72.89
2018-08-31T22:25:01.828Z,72.58
2018-08-31T22:26:01.811Z,72.41
2018-08-31T22:27:01.845Z,72.78
2018-08-31T22:28:01.796Z,72.72
2018-08-31T22:29:01.786Z,73.33
2018-08-31T22:30:01.803Z,73.85
2018-08-31T22:31:01.787Z,73.95
2018-08-31T22:32:01.748Z,73.74
2018-08-31T22:33:01.774Z,73.23
2018-08-31T22:34:01.726Z,73.44
2018-08-31T22:35:01.723Z,74.36
2018-08-31T22:36:01.706Z,73.95
2018-08-31T22:37:01.711Z,73.95
2018-08-31T22:38:01.683Z,74.05
2018-08-31T22:39:01.712Z,73.95
2018-08-31T22:40:01.673Z,74.05
2018-08-31T22:41:01.643Z,74.05
2018-08-31T22:42:01.654Z,73.74
2018-08-31T22:43:01.632Z,74.15
2018-08-31T22:44:01.633Z,74.15
2018-08-31T22:45:01.662Z,73.64
2018-08-31T22:46:01.600Z,73.64
2018-08-31T22:47:01.588Z,74.15
2018-08-31T22:48:01.588Z,73.74
2018-08-31T22:49:01.565Z,73.54
2018-08-31T22:50:01.586Z,74.08
2018-08-31T22:51:01.578Z,74.29
2018-08-31T22:52:01.543Z,74.70
2018-08-31T22:53:01.528Z,74.19
2018-08-31T22:54:01.527Z,74.19
2018-08-31T22:55:01.503Z,74.97
2018-08-31T22:56:01.489Z,74.90
2018-08-31T22:57:01.505Z,74.80
2018-08-31T22:58:01.469Z,74.70
2018-08-31T22:59:01.457Z,74.80
2018-08-31T23:00:01.444Z,75.11
2018-08-31T23:01:01.440Z,74.80
2018-08-31T23:02:01.419Z,74.60
2018-08-31T23:03:01.453Z,74.70
2018-08-31T23:04:01.400Z,74.80
2018-08-31T23:05:01.389Z,74.70
2018-08-31T23:06:01.382Z,74.19
2018-08-31T23:07:01.368Z,75.01
2018-08-31T23:08:01.358Z,74.70
2018-08-31T23:09:01.371Z,74.49
2018-08-31T23:10:01.339Z,74.70
2018-08-31T23:11:01.322Z,74.53
2018-08-31T23:12:01.309Z,75.24
2018-08-31T23:13:01.334Z,74.84
2018-08-31T23:14:01.386Z,74.94
2018-08-31T23:15:01.325Z,74.63
2018-08-31T23:16:01.338Z,74.84
2018-08-31T23:17:01.268Z,74.73
2018-08-31T23:18:01.274Z,75.15
2018-08-31T23:19:01.244Z,75.15
2018-08-31T23:20:01.259Z,75.24
2018-08-31T23:21:01.260Z,75.45
2018-08-31T23:22:01.204Z,75.35
2018-08-31T23:23:01.192Z,74.94
2018-08-31T23:24:01.183Z,75.49
2018-08-31T23:25:01.183Z,75.28
2018-08-31T23:26:01.161Z,75.66
2018-08-31T23:27:01.195Z,75.49
2018-08-31T23:28:01.140Z,75.59
2018-08-31T23:29:01.145Z,75.69
2018-08-31T23:30:01.124Z,76.20
2018-08-31T23:31:01.108Z,75.69
2018-08-31T23:32:01.098Z,76.10
2018-08-31T23:33:01.114Z,76.20
2018-08-31T23:34:01.105Z,76.10
2018-08-31T23:35:01.059Z,75.69
2018-08-31T23:36:01.064Z,75.90
2018-08-31T23:37:01.060Z,75.90
2018-08-31T23:38:01.049Z,76.10
2018-08-31T23:39:01.076Z,76.10
2018-08-31T23:40:01.016Z,76.20
2018-08-31T23:41:00.996Z,76.00
2018-08-31T23:42:00.984Z,76.86
2018-08-31T23:43:00.997Z,76.20
2018-08-31T23:44:00.972Z,76.34
2018-08-31T23:45:00.987Z,76.86
2018-08-31T23:46:00.962Z,76.96
2018-08-31T23:47:00.940Z,76.65
2018-08-31T23:48:00.956Z,76.86
2018-08-31T23:49:00.923Z,76.75
2018-08-31T23:50:00.910Z,76.75
2018-08-31T23:51:00.935Z,77.06
2018-08-31T23:52:00.928Z,76.45
2018-08-31T23:53:00.884Z,76.75
2018-08-31T23:54:00.862Z,76.86
2018-08-31T23:55:00.841Z,77.26
2018-08-31T23:56:00.855Z,76.86
2018-08-31T23:57:00.862Z,77.78
2018-08-31T23:58:00.815Z,76.96
2018-08-31T23:59:00.830Z,77.06
